sensor_id;sensor_type;location;lat;lon;timestamp;pressure;altitude;pressure_sealevel;temperature;humidity
27984;BME280;15317;50.360;8.726;2024-03-08T00:00:20;99683.38;;;1.57;100.00
27984;BME280;15317;50.360;8.726;2024-03-08T00:05:24;99688.25;;;1.51;100.00
27984;BME280;15317;50.360;8.726;2024-03-08T00:10:27;99668.59;;;1.38;100.00
27984;BME280;15317;50.360;8.726;2024-03-08T00:15:32;99675.50;;;1.28;100.00
27984;BME280;15317;50.360;8.726;2024-03-08T00:20:36;99664.97;;;1.25;100.00
27984;BME280;15317;50.360;8.726;2024-03-08T00:25:40;99668.81;;;1.21;100.00
27984;BME280;15317;50.360;8.726;2024-03-08T00:30:44;99659.84;;;1.22;100.00
27984;BME280;15317;50.360;8.726;2024-03-08T00:35:48;99667.66;;;1.10;100.00
27984;BME280;15317;50.360;8.726;2024-03-08T00:40:52;99657.56;;;1.01;100.00
27984;BME280;15317;50.360;8.726;2024-03-08T00:45:57;99652.59;;;0.95;100.00
27984;BME280;15317;50.360;8.726;2024-03-08T00:51:00;99644.19;;;0.87;100.00
27984;BME280;15317;50.360;8.726;2024-03-08T00:56:05;99648.94;;;0.82;100.00
27984;BME280;15317;50.360;8.726;2024-03-08T01:01:09;99647.03;;;0.70;100.00
27984;BME280;15317;50.360;8.726;2024-03-08T01:06:12;99647.63;;;0.61;100.00
27984;BME280;15317;50.360;8.726;2024-03-08T01:11:17;99633.75;;;0.54;100.00
27984;BME280;15317;50.360;8.726;2024-03-08T01:16:22;99620.09;;;0.45;100.00
27984;BME280;15317;50.360;8.726;2024-03-08T01:21:25;99617.00;;;0.36;100.00
27984;BME280;15317;50.360;8.726;2024-03-08T01:26:28;99620.63;;;0.35;100.00
27984;BME280;15317;50.360;8.726;2024-03-08T01:31:33;99612.81;;;0.32;100.00
27984;BME280;15317;50.360;8.726;2024-03-08T01:36:39;99604.50;;;0.23;100.00
27984;BME280;15317;50.360;8.726;2024-03-08T01:41:42;99598.75;;;0.15;100.00
27984;BME280;15317;50.360;8.726;2024-03-08T01:46:48;99593.78;;;0.09;100.00
27984;BME280;15317;50.360;8.726;2024-03-08T01:51:54;99584.41;;;0.02;100.00
27984;BME280;15317;50.360;8.726;2024-03-08T01:56:59;99584.88;;;-0.06;100.00
27984;BME280;15317;50.360;8.726;2024-03-08T02:02:05;99569.31;;;-0.14;100.00
27984;BME280;15317;50.360;8.726;2024-03-08T02:07:11;99566.25;;;-0.22;100.00
27984;BME280;15317;50.360;8.726;2024-03-08T02:12:14;99563.81;;;-0.26;100.00
27984;BME280;15317;50.360;8.726;2024-03-08T02:17:19;99555.44;;;-0.34;100.00
27984;BME280;15317;50.360;8.726;2024-03-08T02:22:24;99556.56;;;-0.38;100.00
27984;BME280;15317;50.360;8.726;2024-03-08T02:27:27;99551.28;;;-0.40;100.00
27984;BME280;15317;50.360;8.726;2024-03-08T02:32:32;99537.38;;;-0.45;100.00
27984;BME280;15317;50.360;8.726;2024-03-08T02:37:37;99542.03;;;-0.49;100.00
27984;BME280;15317;50.360;8.726;2024-03-08T02:42:42;99530.59;;;-0.51;100.00
27984;BME280;15317;50.360;8.726;2024-03-08T02:47:46;99535.16;;;-0.53;100.00
27984;BME280;15317;50.360;8.726;2024-03-08T02:52:52;99529.22;;;-0.58;100.00
27984;BME280;15317;50.360;8.726;2024-03-08T02:57:56;99532.06;;;-0.61;100.00
27984;BME280;15317;50.360;8.726;2024-03-08T03:02:59;99526.91;;;-0.64;100.00
27984;BME280;15317;50.360;8.726;2024-03-08T03:08:06;99517.47;;;-0.69;100.00
27984;BME280;15317;50.360;8.726;2024-03-08T03:13:12;99526.56;;;-0.73;100.00
27984;BME280;15317;50.360;8.726;2024-03-08T03:18:16;99512.66;;;-0.78;100.00
27984;BME280;15317;50.360;8.726;2024-03-08T03:23:25;99516.63;;;-0.86;100.00
27984;BME280;15317;50.360;8.726;2024-03-08T03:28:28;99514.22;;;-0.90;100.00
27984;BME280;15317;50.360;8.726;2024-03-08T03:33:31;99523.94;;;-0.89;100.00
27984;BME280;15317;50.360;8.726;2024-03-08T03:38:37;99510.00;;;-0.94;100.00
27984;BME280;15317;50.360;8.726;2024-03-08T03:43:42;99512.84;;;-0.97;100.00
27984;BME280;15317;50.360;8.726;2024-03-08T03:48:45;99505.28;;;-1.05;100.00
27984;BME280;15317;50.360;8.726;2024-03-08T03:53:50;99503.66;;;-1.07;100.00
27984;BME280;15317;50.360;8.726;2024-03-08T03:58:53;99500.81;;;-1.04;100.00
27984;BME280;15317;50.360;8.726;2024-03-08T04:03:56;99493.50;;;-1.01;100.00
27984;BME280;15317;50.360;8.726;2024-03-08T04:09:01;99495.13;;;-0.98;100.00
27984;BME280;15317;50.360;8.726;2024-03-08T04:14:05;99489.31;;;-1.05;100.00
27984;BME280;15317;50.360;8.726;2024-03-08T04:19:08;99483.97;;;-1.05;100.00
27984;BME280;15317;50.360;8.726;2024-03-08T04:24:13;99485.25;;;-0.96;100.00
27984;BME280;15317;50.360;8.726;2024-03-08T04:29:17;99487.94;;;-0.96;100.00
27984;BME280;15317;50.360;8.726;2024-03-08T04:34:20;99483.69;;;-1.00;100.00
27984;BME280;15317;50.360;8.726;2024-03-08T04:39:25;99480.16;;;-1.01;100.00
27984;BME280;15317;50.360;8.726;2024-03-08T04:44:30;99478.44;;;-1.02;100.00
27984;BME280;15317;50.360;8.726;2024-03-08T04:49:34;99474.16;;;-1.04;100.00
27984;BME280;15317;50.360;8.726;2024-03-08T04:54:38;99467.28;;;-1.08;100.00
27984;BME280;15317;50.360;8.726;2024-03-08T04:59:41;99469.19;;;-1.10;100.00
27984;BME280;15317;50.360;8.726;2024-03-08T05:04:45;99470.91;;;-1.09;100.00
27984;BME280;15317;50.360;8.726;2024-03-08T05:09:49;99463.31;;;-1.01;100.00
27984;BME280;15317;50.360;8.726;2024-03-08T05:14:54;99464.38;;;-1.04;100.00
27984;BME280;15317;50.360;8.726;2024-03-08T05:19:57;99463.00;;;-1.11;100.00
27984;BME280;15317;50.360;8.726;2024-03-08T05:25:02;99460.56;;;-1.15;100.00
27984;BME280;15317;50.360;8.726;2024-03-08T05:30:07;99460.78;;;-1.18;100.00
27984;BME280;15317;50.360;8.726;2024-03-08T05:35:16;99460.94;;;-1.22;100.00
27984;BME280;15317;50.360;8.726;2024-03-08T05:40:21;99454.06;;;-1.26;100.00
27984;BME280;15317;50.360;8.726;2024-03-08T05:45:24;99455.78;;;-1.25;100.00
27984;BME280;15317;50.360;8.726;2024-03-08T05:50:28;99457.75;;;-1.28;100.00
27984;BME280;15317;50.360;8.726;2024-03-08T05:55:32;99447.44;;;-1.34;100.00
27984;BME280;15317;50.360;8.726;2024-03-08T06:00:37;99450.09;;;-1.34;100.00
27984;BME280;15317;50.360;8.726;2024-03-08T06:05:40;99452.69;;;-1.33;100.00
27984;BME280;15317;50.360;8.726;2024-03-08T06:10:45;99449.25;;;-1.35;100.00
27984;BME280;15317;50.360;8.726;2024-03-08T06:15:50;99449.09;;;-1.32;100.00
27984;BME280;15317;50.360;8.726;2024-03-08T06:20:53;99450.47;;;-1.25;100.00
27984;BME280;15317;50.360;8.726;2024-03-08T06:25:59;99453.38;;;-1.13;100.00
27984;BME280;15317;50.360;8.726;2024-03-08T06:31:03;99451.78;;;-1.02;100.00
27984;BME280;15317;50.360;8.726;2024-03-08T06:36:06;99453.66;;;-0.88;100.00
27984;BME280;15317;50.360;8.726;2024-03-08T06:41:11;99453.75;;;-0.60;100.00
27984;BME280;15317;50.360;8.726;2024-03-08T06:46:17;99445.41;;;-0.40;100.00
27984;BME280;15317;50.360;8.726;2024-03-08T06:51:23;99449.09;;;-0.12;100.00
27984;BME280;15317;50.360;8.726;2024-03-08T06:56:28;99448.53;;;0.11;100.00
27984;BME280;15317;50.360;8.726;2024-03-08T07:01:32;99446.97;;;0.50;100.00
27984;BME280;15317;50.360;8.726;2024-03-08T07:06:38;99443.56;;;0.89;100.00
27984;BME280;15317;50.360;8.726;2024-03-08T07:11:44;99443.28;;;1.33;100.00
27984;BME280;15317;50.360;8.726;2024-03-08T07:16:49;99433.09;;;1.77;100.00
27984;BME280;15317;50.360;8.726;2024-03-08T07:21:53;99432.00;;;2.30;100.00
27984;BME280;15317;50.360;8.726;2024-03-08T07:26:58;99425.63;;;3.63;100.00
27984;BME280;15317;50.360;8.726;2024-03-08T07:32:02;99417.41;;;5.21;100.00
27984;BME280;15317;50.360;8.726;2024-03-08T07:37:20;99422.03;;;6.03;100.00
27984;BME280;15317;50.360;8.726;2024-03-08T07:42:25;99422.78;;;6.75;100.00
27984;BME280;15317;50.360;8.726;2024-03-08T07:47:28;99420.31;;;7.12;93.50
27984;BME280;15317;50.360;8.726;2024-03-08T07:52:34;99413.97;;;7.62;89.89
27984;BME280;15317;50.360;8.726;2024-03-08T07:57:39;99412.13;;;8.38;85.28
27984;BME280;15317;50.360;8.726;2024-03-08T08:02:44;99411.47;;;8.63;81.11
27984;BME280;15317;50.360;8.726;2024-03-08T08:07:48;99401.06;;;8.31;81.20
27984;BME280;15317;50.360;8.726;2024-03-08T08:12:55;99402.34;;;9.09;78.84
27984;BME280;15317;50.360;8.726;2024-03-08T08:17:59;99398.75;;;9.36;78.94
27984;BME280;15317;50.360;8.726;2024-03-08T08:23:02;99387.88;;;9.89;72.92
27984;BME280;15317;50.360;8.726;2024-03-08T08:28:07;99388.75;;;9.36;71.77
27984;BME280;15317;50.360;8.726;2024-03-08T08:33:10;99377.22;;;9.52;74.97
27984;BME280;15317;50.360;8.726;2024-03-08T08:38:14;99372.81;;;9.33;68.60
27984;BME280;15317;50.360;8.726;2024-03-08T08:43:19;99371.09;;;9.68;68.72
27984;BME280;15317;50.360;8.726;2024-03-08T08:48:26;99363.16;;;10.18;68.27
27984;BME280;15317;50.360;8.726;2024-03-08T08:53:31;99363.34;;;10.50;65.63
27984;BME280;15317;50.360;8.726;2024-03-08T08:58:36;99355.38;;;10.49;62.46
27984;BME280;15317;50.360;8.726;2024-03-08T09:03:40;99346.16;;;10.84;64.24
27984;BME280;15317;50.360;8.726;2024-03-08T09:08:43;99339.63;;;11.27;61.26
27984;BME280;15317;50.360;8.726;2024-03-08T09:13:49;99335.06;;;11.43;60.08
27984;BME280;15317;50.360;8.726;2024-03-08T09:18:52;99325.47;;;10.99;66.34
27984;BME280;15317;50.360;8.726;2024-03-08T09:23:58;99309.88;;;11.09;62.18
27984;BME280;15317;50.360;8.726;2024-03-08T09:29:03;99311.44;;;11.44;60.76
27984;BME280;15317;50.360;8.726;2024-03-08T09:34:07;99294.44;;;11.42;60.67
27984;BME280;15317;50.360;8.726;2024-03-08T09:39:18;99297.00;;;11.52;60.73
27984;BME280;15317;50.360;8.726;2024-03-08T09:44:27;99288.97;;;11.09;58.32
27984;BME280;15317;50.360;8.726;2024-03-08T09:49:33;99270.75;;;10.69;59.91
27984;BME280;15317;50.360;8.726;2024-03-08T09:54:39;99268.44;;;11.23;59.44
27984;BME280;15317;50.360;8.726;2024-03-08T09:59:47;99262.63;;;11.75;58.82
27984;BME280;15317;50.360;8.726;2024-03-08T10:04:52;99251.75;;;11.75;56.14
27984;BME280;15317;50.360;8.726;2024-03-08T10:09:56;99240.72;;;11.36;58.26
27984;BME280;15317;50.360;8.726;2024-03-08T10:15:00;99228.91;;;12.00;57.27
27984;BME280;15317;50.360;8.726;2024-03-08T10:20:05;99216.81;;;12.42;57.50
27984;BME280;15317;50.360;8.726;2024-03-08T10:25:17;99212.84;;;12.52;54.70
27984;BME280;15317;50.360;8.726;2024-03-08T10:30:22;99205.28;;;12.32;55.92
27984;BME280;15317;50.360;8.726;2024-03-08T10:35:25;99197.19;;;12.54;54.28
27984;BME280;15317;50.360;8.726;2024-03-08T10:40:29;99200.03;;;13.06;52.70
27984;BME280;15317;50.360;8.726;2024-03-08T10:45:36;99194.44;;;12.54;54.38
27984;BME280;15317;50.360;8.726;2024-03-08T10:50:43;99184.09;;;12.73;53.17
27984;BME280;15317;50.360;8.726;2024-03-08T10:55:49;99189.47;;;13.03;53.93
27984;BME280;15317;50.360;8.726;2024-03-08T11:00:57;99172.09;;;13.04;50.07
27984;BME280;15317;50.360;8.726;2024-03-08T11:06:01;99165.34;;;12.55;51.98
27984;BME280;15317;50.360;8.726;2024-03-08T11:11:04;99165.94;;;12.65;50.42
27984;BME280;15317;50.360;8.726;2024-03-08T11:16:10;99149.41;;;12.13;50.04
27984;BME280;15317;50.360;8.726;2024-03-08T11:21:14;99146.25;;;12.78;51.35
27984;BME280;15317;50.360;8.726;2024-03-08T11:26:18;99155.69;;;13.50;49.83
27984;BME280;15317;50.360;8.726;2024-03-08T11:31:25;99146.56;;;12.83;49.80
27984;BME280;15317;50.360;8.726;2024-03-08T11:36:29;99135.44;;;13.59;50.72
27984;BME280;15317;50.360;8.726;2024-03-08T11:41:37;99129.78;;;12.71;50.63
27984;BME280;15317;50.360;8.726;2024-03-08T11:46:42;99132.22;;;12.89;50.39
27984;BME280;15317;50.360;8.726;2024-03-08T11:51:51;99115.00;;;12.65;52.13
27984;BME280;15317;50.360;8.726;2024-03-08T11:56:55;99115.69;;;13.28;51.66
27984;BME280;15317;50.360;8.726;2024-03-08T12:02:04;99104.03;;;13.34;48.11
27984;BME280;15317;50.360;8.726;2024-03-08T12:07:09;99080.31;;;12.59;49.58
27984;BME280;15317;50.360;8.726;2024-03-08T12:12:14;99093.81;;;12.76;49.04
27984;BME280;15317;50.360;8.726;2024-03-08T12:17:20;99077.84;;;12.50;50.80
27984;BME280;15317;50.360;8.726;2024-03-08T12:22:25;99059.91;;;13.30;53.11
27984;BME280;15317;50.360;8.726;2024-03-08T12:27:28;99066.09;;;13.24;47.86
27984;BME280;15317;50.360;8.726;2024-03-08T12:32:33;99058.19;;;13.59;48.75
27984;BME280;15317;50.360;8.726;2024-03-08T12:37:37;99055.25;;;13.90;47.79
27984;BME280;15317;50.360;8.726;2024-03-08T12:42:40;99050.75;;;13.67;47.69
27984;BME280;15317;50.360;8.726;2024-03-08T12:47:45;99034.47;;;13.59;49.77
27984;BME280;15317;50.360;8.726;2024-03-08T12:52:48;99034.47;;;14.10;47.90
27984;BME280;15317;50.360;8.726;2024-03-08T12:57:55;99017.50;;;14.14;48.54
27984;BME280;15317;50.360;8.726;2024-03-08T13:02:59;99011.47;;;14.19;47.13
27984;BME280;15317;50.360;8.726;2024-03-08T13:08:03;99007.28;;;13.51;48.91
27984;BME280;15317;50.360;8.726;2024-03-08T13:13:06;98992.38;;;13.32;47.37
27984;BME280;15317;50.360;8.726;2024-03-08T13:18:13;98983.59;;;13.88;47.15
27984;BME280;15317;50.360;8.726;2024-03-08T13:23:17;98979.13;;;13.15;48.19
27984;BME280;15317;50.360;8.726;2024-03-08T13:28:21;98973.59;;;13.23;47.82
27984;BME280;15317;50.360;8.726;2024-03-08T13:33:31;98981.47;;;13.03;49.72
27984;BME280;15317;50.360;8.726;2024-03-08T13:38:37;98976.63;;;12.90;49.26
27984;BME280;15317;50.360;8.726;2024-03-08T13:43:40;98970.63;;;12.80;50.37
27984;BME280;15317;50.360;8.726;2024-03-08T13:48:45;98954.19;;;13.03;49.45
27984;BME280;15317;50.360;8.726;2024-03-08T13:53:49;98943.84;;;12.84;49.47
27984;BME280;15317;50.360;8.726;2024-03-08T13:58:52;98936.13;;;12.73;48.89
27984;BME280;15317;50.360;8.726;2024-03-08T14:03:59;98925.59;;;12.84;48.97
27984;BME280;15317;50.360;8.726;2024-03-08T14:09:02;98919.69;;;12.66;50.30
27984;BME280;15317;50.360;8.726;2024-03-08T14:14:06;98903.72;;;12.48;50.47
27984;BME280;15317;50.360;8.726;2024-03-08T14:19:12;98897.03;;;12.51;51.30
27984;BME280;15317;50.360;8.726;2024-03-08T14:24:17;98903.63;;;12.42;50.40
27984;BME280;15317;50.360;8.726;2024-03-08T14:29:20;98890.72;;;12.36;50.26
27984;BME280;15317;50.360;8.726;2024-03-08T14:34:25;98877.28;;;11.82;51.61
27984;BME280;15317;50.360;8.726;2024-03-08T14:39:29;98860.47;;;12.31;54.02
27984;BME280;15317;50.360;8.726;2024-03-08T14:44:32;98863.38;;;12.29;52.03
27984;BME280;15317;50.360;8.726;2024-03-08T14:49:37;98852.25;;;12.01;51.74
27984;BME280;15317;50.360;8.726;2024-03-08T14:54:42;98842.22;;;11.87;52.95
27984;BME280;15317;50.360;8.726;2024-03-08T14:59:45;98835.22;;;11.62;53.20
27984;BME280;15317;50.360;8.726;2024-03-08T15:04:50;98825.22;;;11.39;52.15
27984;BME280;15317;50.360;8.726;2024-03-08T15:09:59;98812.09;;;11.20;53.60
27984;BME280;15317;50.360;8.726;2024-03-08T15:15:03;98801.84;;;11.30;53.68
27984;BME280;15317;50.360;8.726;2024-03-08T15:20:11;98799.84;;;11.24;53.59
27984;BME280;15317;50.360;8.726;2024-03-08T15:25:18;98790.44;;;11.12;55.01
27984;BME280;15317;50.360;8.726;2024-03-08T15:30:27;98786.75;;;11.05;53.90
27984;BME280;15317;50.360;8.726;2024-03-08T15:35:34;98785.81;;;10.90;55.71
27984;BME280;15317;50.360;8.726;2024-03-08T15:40:39;98772.28;;;10.82;55.60
27984;BME280;15317;50.360;8.726;2024-03-08T15:45:42;98763.94;;;10.83;55.21
27984;BME280;15317;50.360;8.726;2024-03-08T15:50:47;98764.72;;;10.69;55.08
27984;BME280;15317;50.360;8.726;2024-03-08T15:55:51;98759.47;;;10.59;55.25
27984;BME280;15317;50.360;8.726;2024-03-08T16:00:54;98753.09;;;10.44;55.67
27984;BME280;15317;50.360;8.726;2024-03-08T16:05:59;98755.91;;;10.28;57.06
27984;BME280;15317;50.360;8.726;2024-03-08T16:11:03;98752.88;;;10.23;57.98
27984;BME280;15317;50.360;8.726;2024-03-08T16:16:08;98742.03;;;10.07;58.71
27984;BME280;15317;50.360;8.726;2024-03-08T16:21:12;98738.47;;;10.06;58.39
27984;BME280;15317;50.360;8.726;2024-03-08T16:26:16;98726.50;;;9.84;60.60
27984;BME280;15317;50.360;8.726;2024-03-08T16:31:20;98733.31;;;9.80;60.42
27984;BME280;15317;50.360;8.726;2024-03-08T16:36:24;98721.16;;;9.68;61.62
27984;BME280;15317;50.360;8.726;2024-03-08T16:41:29;98719.78;;;9.56;62.13
27984;BME280;15317;50.360;8.726;2024-03-08T16:46:33;98721.84;;;9.38;63.75
27984;BME280;15317;50.360;8.726;2024-03-08T16:51:43;98714.06;;;9.35;63.20
27984;BME280;15317;50.360;8.726;2024-03-08T16:56:47;98725.09;;;9.17;65.43
27984;BME280;15317;50.360;8.726;2024-03-08T17:01:51;98712.91;;;8.97;67.44
27984;BME280;15317;50.360;8.726;2024-03-08T17:06:55;98712.72;;;8.90;67.25
27984;BME280;15317;50.360;8.726;2024-03-08T17:12:01;98723.91;;;8.79;68.22
27984;BME280;15317;50.360;8.726;2024-03-08T17:17:06;98712.34;;;8.69;67.60
27984;BME280;15317;50.360;8.726;2024-03-08T17:22:11;98715.72;;;8.55;69.98
27984;BME280;15317;50.360;8.726;2024-03-08T17:27:14;98711.47;;;8.44;70.00
27984;BME280;15317;50.360;8.726;2024-03-08T17:32:17;98704.69;;;8.32;70.49
27984;BME280;15317;50.360;8.726;2024-03-08T17:37:22;98706.03;;;8.36;69.25
27984;BME280;15317;50.360;8.726;2024-03-08T17:42:25;98702.06;;;8.22;69.98
27984;BME280;15317;50.360;8.726;2024-03-08T17:47:29;98720.28;;;8.12;70.25
27984;BME280;15317;50.360;8.726;2024-03-08T17:52:34;98720.50;;;7.85;73.41
27984;BME280;15317;50.360;8.726;2024-03-08T17:57:41;98722.47;;;7.75;74.52
27984;BME280;15317;50.360;8.726;2024-03-08T18:02:47;98720.78;;;7.48;77.29
27984;BME280;15317;50.360;8.726;2024-03-08T18:07:53;98725.19;;;7.05;83.36
27984;BME280;15317;50.360;8.726;2024-03-08T18:13:00;98707.19;;;6.70;88.65
27984;BME280;15317;50.360;8.726;2024-03-08T18:18:09;98710.59;;;6.55;90.30
27984;BME280;15317;50.360;8.726;2024-03-08T18:23:16;98700.38;;;6.31;93.86
27984;BME280;15317;50.360;8.726;2024-03-08T18:28:21;98704.34;;;6.09;97.38
27984;BME280;15317;50.360;8.726;2024-03-08T18:33:25;98690.41;;;5.86;100.00
27984;BME280;15317;50.360;8.726;2024-03-08T18:38:31;98684.66;;;5.72;100.00
27984;BME280;15317;50.360;8.726;2024-03-08T18:43:34;98689.81;;;5.65;100.00
27984;BME280;15317;50.360;8.726;2024-03-08T18:48:38;98685.16;;;5.57;100.00
27984;BME280;15317;50.360;8.726;2024-03-08T18:53:43;98685.75;;;5.51;100.00
27984;BME280;15317;50.360;8.726;2024-03-08T18:58:46;98684.56;;;5.54;100.00
27984;BME280;15317;50.360;8.726;2024-03-08T19:03:49;98681.41;;;5.68;100.00
27984;BME280;15317;50.360;8.726;2024-03-08T19:08:54;98675.94;;;5.87;100.00
27984;BME280;15317;50.360;8.726;2024-03-08T19:14:00;98672.13;;;5.90;100.00
27984;BME280;15317;50.360;8.726;2024-03-08T19:19:04;98669.28;;;5.91;100.00
27984;BME280;15317;50.360;8.726;2024-03-08T19:24:09;98660.03;;;5.94;100.00
27984;BME280;15317;50.360;8.726;2024-03-08T19:29:13;98658.22;;;5.85;100.00
27984;BME280;15317;50.360;8.726;2024-03-08T19:34:20;98648.31;;;5.76;100.00
27984;BME280;15317;50.360;8.726;2024-03-08T19:39:29;98639.91;;;5.61;100.00
27984;BME280;15317;50.360;8.726;2024-03-08T19:44:32;98647.84;;;5.63;100.00
27984;BME280;15317;50.360;8.726;2024-03-08T19:49:36;98652.25;;;5.54;100.00
27984;BME280;15317;50.360;8.726;2024-03-08T19:54:41;98650.34;;;5.37;100.00
27984;BME280;15317;50.360;8.726;2024-03-08T19:59:44;98655.38;;;5.12;100.00
27984;BME280;15317;50.360;8.726;2024-03-08T20:04:49;98648.66;;;4.89;100.00
27984;BME280;15317;50.360;8.726;2024-03-08T20:09:53;98656.47;;;4.73;100.00
27984;BME280;15317;50.360;8.726;2024-03-08T20:14:58;98650.13;;;4.55;100.00
27984;BME280;15317;50.360;8.726;2024-03-08T20:20:02;98642.59;;;4.39;100.00
27984;BME280;15317;50.360;8.726;2024-03-08T20:25:08;98644.72;;;4.26;100.00
27984;BME280;15317;50.360;8.726;2024-03-08T20:30:15;98641.19;;;4.16;100.00
27984;BME280;15317;50.360;8.726;2024-03-08T20:35:24;98632.69;;;4.01;100.00
27984;BME280;15317;50.360;8.726;2024-03-08T20:40:30;98631.13;;;3.89;100.00
27984;BME280;15317;50.360;8.726;2024-03-08T20:45:39;98624.88;;;3.79;100.00
27984;BME280;15317;50.360;8.726;2024-03-08T20:50:42;98636.72;;;3.67;100.00
27984;BME280;15317;50.360;8.726;2024-03-08T20:55:47;98624.66;;;3.51;100.00
27984;BME280;15317;50.360;8.726;2024-03-08T21:00:52;98623.34;;;3.36;100.00
27984;BME280;15317;50.360;8.726;2024-03-08T21:06:01;98621.75;;;3.24;100.00
27984;BME280;15317;50.360;8.726;2024-03-08T21:11:06;98625.22;;;3.15;100.00
27984;BME280;15317;50.360;8.726;2024-03-08T21:16:11;98616.16;;;3.06;100.00
27984;BME280;15317;50.360;8.726;2024-03-08T21:21:15;98597.50;;;3.05;100.00
27984;BME280;15317;50.360;8.726;2024-03-08T21:26:20;98605.81;;;3.02;100.00
27984;BME280;15317;50.360;8.726;2024-03-08T21:31:24;98602.28;;;3.01;100.00
27984;BME280;15317;50.360;8.726;2024-03-08T21:36:27;98612.00;;;2.93;100.00
27984;BME280;15317;50.360;8.726;2024-03-08T21:41:32;98609.97;;;2.85;100.00
27984;BME280;15317;50.360;8.726;2024-03-08T21:46:36;98614.56;;;2.73;100.00
27984;BME280;15317;50.360;8.726;2024-03-08T21:51:40;98611.97;;;2.62;100.00
27984;BME280;15317;50.360;8.726;2024-03-08T21:56:49;98617.25;;;2.53;100.00
27984;BME280;15317;50.360;8.726;2024-03-08T22:01:53;98616.47;;;2.41;100.00
27984;BME280;15317;50.360;8.726;2024-03-08T22:06:56;98618.69;;;2.36;100.00
27984;BME280;15317;50.360;8.726;2024-03-08T22:12:02;98611.69;;;2.24;100.00
27984;BME280;15317;50.360;8.726;2024-03-08T22:17:06;98607.09;;;2.15;100.00
27984;BME280;15317;50.360;8.726;2024-03-08T22:22:11;98604.47;;;2.04;100.00
27984;BME280;15317;50.360;8.726;2024-03-08T22:27:18;98598.78;;;1.97;100.00
27984;BME280;15317;50.360;8.726;2024-03-08T22:32:22;98597.06;;;1.96;100.00
27984;BME280;15317;50.360;8.726;2024-03-08T22:37:26;98589.50;;;2.01;100.00
27984;BME280;15317;50.360;8.726;2024-03-08T22:42:33;98599.38;;;2.01;100.00
27984;BME280;15317;50.360;8.726;2024-03-08T22:47:37;98598.16;;;2.05;100.00
27984;BME280;15317;50.360;8.726;2024-03-08T22:52:41;98612.75;;;2.01;100.00
27984;BME280;15317;50.360;8.726;2024-03-08T22:57:48;98612.28;;;1.95;100.00
27984;BME280;15317;50.360;8.726;2024-03-08T23:02:53;98620.09;;;1.87;100.00
27984;BME280;15317;50.360;8.726;2024-03-08T23:07:57;98616.63;;;1.76;100.00
27984;BME280;15317;50.360;8.726;2024-03-08T23:13:04;98611.41;;;1.63;100.00
27984;BME280;15317;50.360;8.726;2024-03-08T23:18:08;98611.91;;;1.57;100.00
27984;BME280;15317;50.360;8.726;2024-03-08T23:23:13;98611.53;;;1.50;100.00
27984;BME280;15317;50.360;8.726;2024-03-08T23:28:17;98616.31;;;1.47;100.00
27984;BME280;15317;50.360;8.726;2024-03-08T23:33:21;98618.25;;;1.45;100.00
27984;BME280;15317;50.360;8.726;2024-03-08T23:38:24;98615.34;;;1.37;100.00
27984;BME280;15317;50.360;8.726;2024-03-08T23:43:29;98613.16;;;1.31;100.00
27984;BME280;15317;50.360;8.726;2024-03-08T23:48:32;98612.69;;;1.26;100.00
27984;BME280;15317;50.360;8.726;2024-03-08T23:53:35;98613.66;;;1.25;100.00
27984;BME280;15317;50.360;8.726;2024-03-08T23:58:41;98613.66;;;1.25;100.00
